Sloughhouse, California
Current Conditions -  °F | °C
As of 7:46 PM on Saturday 25 Oct 2014 (Local Time) from KMHR Reporting Station
Broken Clouds Broken Clouds  
Wind Chill: 61°   Ceiling: 6500
Heat Index: 61°   Visibility: 10mi
Dew Point: 55°   Wind: 5mph
Humidity: 82%   Direction: 160°SSE
Pressure: 30.08"   Gusts: NA
Location:  38.5°N, 121.19°W
Report Text: KMHR 260246Z 16004KT 10SM BKN065 16/13 A3008
Loading
Personal Weather Stations






























Interactive Weather Map
Tropical Storm Tracking
New forecast layout! Learn more

10-Day Weather Forecast

Advertisements
Track Severe Weather on mobile